Shin Chun — VRFD2 — position and weather

sailwx.info

Track history (hours):
 
Tides and Currents Weather Stations Pressure Air Temp Water Temp Dewpoint Dewpoint Depression Visibility Wind Speed Wind Dir Waves Ship Positions

Shin Chun

Last reported at 2014-Aug-22 21:05 UTC. Time now 2014-Aug-22 21:38 UTC.
Position N 22°37' E 120°14'.

Length 152 m; draft 6.3 m.

Type: Cargo ship. MMSI: 477218300.

Date/timePositionNaut miles runAvg speedWind from/ knotsBaromVisibWave heightAir tempDewpointWater temp
2014-Aug-22 21:05N 22°37' E 120°14'0 0.0
2014-Aug-22 20:32N 22°37' E 120°14'0 0.0
2014-Aug-22 19:32N 22°37' E 120°14'0 0.0
2014-Aug-22 18:32N 22°37' E 120°14'6 5.9
2014-Aug-22 17:33N 22°41' E 120°09'1514.7
2014-Aug-22 16:33N 22°53' E 120°00'4212.6
2014-Aug-22 13:12N 23°35' E 119°55'1210.6
2014-Aug-22 12:06N 23°47' E 119°57'610.4
2014-Aug-22 11:33N 23°52' E 119°57'1110.8
2014-Aug-22 10:33N 24°03' E 119°58'1111.0
2014-Aug-22 09:32N 24°14' E 119°59'1212.4
2014-Aug-22 08:33N 24°27' E 119°59'1313.1
2014-Aug-22 07:33N 24°40' E 119°60'1313.3
2014-Aug-22 06:33N 24°53' E 120°01'1312.7
2014-Aug-22 05:33N 25°06' E 120°02'6212.2
2014-Aug-22 00:25N 26°06' E 119°43'8 9.9
2014-Aug-21 23:33N 26°07' E 119°33'8 7.1
2014-Aug-21 22:29N 26°00' E 119°29'0 0.0
2014-Aug-21 21:29N 26°00' E 119°29'0 0.0
2014-Aug-21 20:23N 26°00' E 119°29'0 0.0
2014-Aug-21 19:29N 26°00' E 119°29'0 0.0
2014-Aug-21 18:29N 26°00' E 119°29'0 0.0
2014-Aug-21 17:23N 26°00' E 119°29'0 0.0
2014-Aug-21 16:29N 26°00' E 119°29'0 0.0
2014-Aug-21 15:23N 26°00' E 119°29'0 0.0
2014-Aug-21 14:22N 26°00' E 119°29'0 0.0
2014-Aug-21 13:22N 26°00' E 119°29'0 0.0
2014-Aug-21 12:10N 26°00' E 119°29'0 0.0
2014-Aug-21 11:28N 26°00' E 119°29'0 0.0
2014-Aug-21 10:28N 26°00' E 119°29'0 0.0
2014-Aug-21 09:22N 26°00' E 119°29'0 0.0
2014-Aug-21 08:28N 26°00' E 119°29'0 0.0
2014-Aug-21 07:28N 26°00' E 119°29'0 0.0
2014-Aug-21 06:28N 26°00' E 119°29'0 0.0
2014-Aug-21 05:22N 26°00' E 119°29'0 0.0
2014-Aug-21 04:22N 26°00' E 119°29'0 0.0
2014-Aug-21 03:28N 26°00' E 119°29'0 0.0
2014-Aug-21 02:28N 26°00' E 119°29'0 0.0
2014-Aug-21 01:28N 26°00' E 119°29'1 0.6
2014-Aug-21 00:33N 26°01' E 119°29'14 7.2
2014-Aug-20 22:33N 26°05' E 119°44'5 1.0
2014-Aug-20 17:04N 26°04' E 119°50'48 7.3
2014-Aug-20 10:33N 25°18' E 119°36'1212.1
2014-Aug-20 09:34N 25°22' E 119°23'6 5.8
2014-Aug-20 08:30N 25°25' E 119°17'0 0.0
2014-Aug-20 07:30N 25°25' E 119°17'0 0.0
2014-Aug-20 06:30N 25°25' E 119°17'0 0.0
2014-Aug-20 05:24N 25°25' E 119°17'0 0.0
2014-Aug-20 04:30N 25°25' E 119°17'0 0.0
2014-Aug-20 03:30N 25°25' E 119°17'0 0.0
2014-Aug-20 02:30N 25°25' E 119°17'1 0.9
2014-Aug-20 01:33N 25°24' E 119°18'1211.5
2014-Aug-20 00:33N 25°19' E 119°29'9 7.7
2014-Aug-19 23:22N 25°18' E 119°39'0 0.0
2014-Aug-19 18:25N 25°18' E 119°39'0 0.0
2014-Aug-19 17:31N 25°18' E 119°39'0 0.0
2014-Aug-19 16:25N 25°18' E 119°39'0 0.0
2014-Aug-19 15:25N 25°18' E 119°39'0 0.1
2014-Aug-19 14:25N 25°18' E 119°39'0 0.1
2014-Aug-19 13:22N 25°18' E 119°39'0 0.0
2014-Aug-19 12:28N 25°18' E 119°39'5 5.8
2014-Aug-19 11:33N 25°14' E 119°43'146 7.7
2014-Aug-18 16:33N 22°49' E 120°03'1313.2
2014-Aug-18 15:33N 22°39' E 120°12'7 7.0
2014-Aug-18 14:33N 22°35' E 120°18'0 0.0
2014-Aug-18 13:32N 22°35' E 120°18'0 0.0
2014-Aug-18 12:26N 22°35' E 120°18'0 0.0
2014-Aug-18 11:32N 22°35' E 120°18'0 0.0
2014-Aug-18 10:32N 22°35' E 120°18'0 0.0
2014-Aug-18 09:26N 22°35' E 120°18'0 0.0
2014-Aug-18 08:32N 22°35' E 120°18'0 0.0
2014-Aug-18 07:32N 22°35' E 120°18'0 0.0
2014-Aug-18 06:32N 22°35' E 120°18'0 0.0
2014-Aug-18 05:20N 22°35' E 120°18'2 2.3
2014-Aug-18 04:33N 22°36' E 120°17'6 6.1
2014-Aug-18 03:33N 22°38' E 120°11'1010.3
2014-Aug-18 02:33N 22°44' E 120°02'1312.7
2014-Aug-18 01:33N 22°51' E 119°50'1211.9
2014-Aug-18 00:33N 22°57' E 119°39'7813.0
2014-Aug-17 18:32N 23°53' E 118°39'2412.2
2014-Aug-17 16:33N 24°10' E 118°21'1312.7
2014-Aug-17 15:33N 24°19' E 118°11'1111.3
2014-Aug-17 14:33N 24°28' E 118°03'4 2.8
2014-Aug-17 13:16N 24°31' E 118°05'0 0.0
2014-Aug-17 12:31N 24°31' E 118°05'0 0.0
2014-Aug-17 11:31N 24°31' E 118°05'0 0.0
2014-Aug-17 10:28N 24°31' E 118°05'0 0.0
2014-Aug-17 09:28N 24°31' E 118°05'0 0.0
2014-Aug-17 08:28N 24°31' E 118°05'0 0.0
2014-Aug-17 07:22N 24°31' E 118°05'0 0.0
2014-Aug-17 06:31N 24°31' E 118°05'0 0.0
2014-Aug-17 05:25N 24°31' E 118°05'0 0.0
2014-Aug-17 04:31N 24°31' E 118°05'0 0.0
2014-Aug-17 03:28N 24°31' E 118°05'0 0.0
2014-Aug-17 02:28N 24°31' E 118°05'1 1.6
2014-Aug-17 01:33N 24°30' E 118°04'8 8.4
2014-Aug-17 00:33N 24°22' E 118°08'9 8.7
2014-Aug-16 23:33N 24°16' E 118°15'7 7.2
2014-Aug-16 22:33N 24°10' E 118°20'1 1.2
2014-Aug-16 21:33N 24°10' E 118°21'1310.8
2014-Aug-16 20:23N 24°01' E 118°31'1213.0
2014-Aug-16 19:26N 23°52' E 118°40'1512.9
2014-Aug-16 18:18N 23°42' E 118°51'1213.3
2014-Aug-16 17:24N 23°33' E 119°01'1214.1
2014-Aug-16 16:33N 23°25' E 119°09'1514.6
2014-Aug-16 15:33N 23°14' E 119°20'2712.8
2014-Aug-16 13:27N 22°56' E 119°42'1412.3
2014-Aug-16 12:17N 22°50' E 119°56'811.6
2014-Aug-16 11:33N 22°44' E 120°03'1211.7
2014-Aug-16 10:33N 22°38' E 120°14'5 4.9
2014-Aug-16 09:32N 22°35' E 120°18'0 0.0
2014-Aug-16 08:29N 22°35' E 120°18'0 0.0
2014-Aug-16 07:29N 22°35' E 120°18'0 0.0
2014-Aug-16 06:29N 22°35' E 120°18'0 0.0
2014-Aug-16 05:29N 22°35' E 120°18'0 0.0
2014-Aug-16 04:29N 22°35' E 120°18'0 0.0
2014-Aug-16 03:29N 22°35' E 120°18'0 0.0
2014-Aug-16 02:29N 22°35' E 120°18'0 0.0
2014-Aug-16 01:29N 22°35' E 120°18'0 0.0
2014-Aug-16 00:33N 22°35' E 120°18'5 4.9
2014-Aug-15 23:33N 22°37' E 120°14'10 9.9
2014-Aug-15 22:34N 22°44' E 120°06'15112.1
2014-Aug-15 10:08N 25°15' E 120°04'1112.5
2014-Aug-15 09:14N 25°26' E 120°03'4910.4
2014-Aug-15 04:33N 26°07' E 119°34'8 8.3
2014-Aug-15 03:33N 26°00' E 119°29'0 0.0
2014-Aug-15 02:29N 26°00' E 119°29'0 0.0
2014-Aug-15 01:29N 26°00' E 119°29'0 0.0
2014-Aug-15 00:29N 26°00' E 119°29'0 0.0
2014-Aug-14 23:29N 26°00' E 119°29'0 0.0
2014-Aug-14 22:29N 26°00' E 119°29'0 0.0
2014-Aug-14 21:22N 26°00' E 119°29'0 0.0
2014-Aug-14 20:28N 26°00' E 119°29'0 0.0
2014-Aug-14 19:28N 26°00' E 119°29'0 0.0
2014-Aug-14 18:22N 26°00' E 119°29'0 0.0
2014-Aug-14 17:28N 26°00' E 119°29'0 0.0
2014-Aug-14 16:28N 26°00' E 119°29'0 0.0
2014-Aug-14 15:28N 26°00' E 119°29'0 0.0
2014-Aug-14 14:28N 26°00' E 119°29'0 0.0
2014-Aug-14 13:28N 26°00' E 119°29'0 0.0
2014-Aug-14 12:28N 26°00' E 119°29'0 0.0
2014-Aug-14 11:28N 26°00' E 119°29'0 0.0
2014-Aug-14 10:33N 26°00' E 119°29'0 0.0
2014-Aug-14 09:34N 26°00' E 119°29'0 0.0
2014-Aug-14 08:33N 26°00' E 119°29'0 0.0
2014-Aug-14 07:34N 26°00' E 119°29'0 0.0
2014-Aug-14 06:34N 26°00' E 119°29'6 6.2
2014-Aug-14 05:33N 26°06' E 119°32'1111.0
2014-Aug-14 04:33N 26°05' E 119°44'6 0.9
2014-Aug-13 22:06N 26°03' E 119°50'4 7.8
2014-Aug-13 21:32N 25°59' E 119°53'44 8.9
2014-Aug-13 16:34N 25°19' E 119°30'1212.2
2014-Aug-13 15:33N 25°24' E 119°18'1 0.8
2014-Aug-13 14:08N 25°25' E 119°17'0 0.0
2014-Aug-13 13:29N 25°25' E 119°17'0 0.0
2014-Aug-13 12:23N 25°25' E 119°17'0 0.0
2014-Aug-13 11:32N 25°25' E 119°17'0 0.0
2014-Aug-13 10:26N 25°25' E 119°17'0 0.0
2014-Aug-13 09:26N 25°25' E 119°17'0 0.0
2014-Aug-13 08:32N 25°25' E 119°17'0 0.0
2014-Aug-13 07:32N 25°25' E 119°17'6 6.1
2014-Aug-13 06:34N 25°22' E 119°23'1211.4
2014-Aug-13 05:33N 25°18' E 119°35'  
Track history (hours):
 
Tides and Currents Weather Stations Pressure Air Temp Water Temp Dewpoint Dewpoint Depression Visibility Wind Speed Wind Dir Waves Ship Positions

Shin Chun

Last reported at 2014-Aug-22 21:05 UTC. Time now 2014-Aug-22 21:38 UTC.
Position N 22°37' E 120°14'.

Length 152 m; draft 6.3 m.

Type: Cargo ship. MMSI: 477218300.

Date/timePositionNaut miles runAvg speedWind from/ knotsBaromVisibWave heightAir tempDewpointWater temp
2014-Aug-22 21:05N 22°37' E 120°14'0 0.0
2014-Aug-22 20:32N 22°37' E 120°14'0 0.0
2014-Aug-22 19:32N 22°37' E 120°14'0 0.0
2014-Aug-22 18:32N 22°37' E 120°14'6 5.9
2014-Aug-22 17:33N 22°41' E 120°09'1514.7
2014-Aug-22 16:33N 22°53' E 120°00'4212.6
2014-Aug-22 13:12N 23°35' E 119°55'1210.6
2014-Aug-22 12:06N 23°47' E 119°57'610.4
2014-Aug-22 11:33N 23°52' E 119°57'1110.8
2014-Aug-22 10:33N 24°03' E 119°58'1111.0
2014-Aug-22 09:32N 24°14' E 119°59'1212.4
2014-Aug-22 08:33N 24°27' E 119°59'1313.1
2014-Aug-22 07:33N 24°40' E 119°60'1313.3
2014-Aug-22 06:33N 24°53' E 120°01'1312.7
2014-Aug-22 05:33N 25°06' E 120°02'6212.2
2014-Aug-22 00:25N 26°06' E 119°43'8 9.9
2014-Aug-21 23:33N 26°07' E 119°33'8 7.1
2014-Aug-21 22:29N 26°00' E 119°29'0 0.0
2014-Aug-21 21:29N 26°00' E 119°29'0 0.0
2014-Aug-21 20:23N 26°00' E 119°29'0 0.0
2014-Aug-21 19:29N 26°00' E 119°29'0 0.0
2014-Aug-21 18:29N 26°00' E 119°29'0 0.0
2014-Aug-21 17:23N 26°00' E 119°29'0 0.0
2014-Aug-21 16:29N 26°00' E 119°29'0 0.0
2014-Aug-21 15:23N 26°00' E 119°29'0 0.0
2014-Aug-21 14:22N 26°00' E 119°29'0 0.0
2014-Aug-21 13:22N 26°00' E 119°29'0 0.0
2014-Aug-21 12:10N 26°00' E 119°29'0 0.0
2014-Aug-21 11:28N 26°00' E 119°29'0 0.0
2014-Aug-21 10:28N 26°00' E 119°29'0 0.0
2014-Aug-21 09:22N 26°00' E 119°29'0 0.0
2014-Aug-21 08:28N 26°00' E 119°29'0 0.0
2014-Aug-21 07:28N 26°00' E 119°29'0 0.0
2014-Aug-21 06:28N 26°00' E 119°29'0 0.0
2014-Aug-21 05:22N 26°00' E 119°29'0 0.0
2014-Aug-21 04:22N 26°00' E 119°29'0 0.0
2014-Aug-21 03:28N 26°00' E 119°29'0 0.0
2014-Aug-21 02:28N 26°00' E 119°29'0 0.0
2014-Aug-21 01:28N 26°00' E 119°29'1 0.6
2014-Aug-21 00:33N 26°01' E 119°29'14 7.2
2014-Aug-20 22:33N 26°05' E 119°44'5 1.0
2014-Aug-20 17:04N 26°04' E 119°50'48 7.3
2014-Aug-20 10:33N 25°18' E 119°36'1212.1
2014-Aug-20 09:34N 25°22' E 119°23'6 5.8
2014-Aug-20 08:30N 25°25' E 119°17'0 0.0
2014-Aug-20 07:30N 25°25' E 119°17'0 0.0
2014-Aug-20 06:30N 25°25' E 119°17'0 0.0
2014-Aug-20 05:24N 25°25' E 119°17'0 0.0
2014-Aug-20 04:30N 25°25' E 119°17'0 0.0
2014-Aug-20 03:30N 25°25' E 119°17'0 0.0
2014-Aug-20 02:30N 25°25' E 119°17'1 0.9
2014-Aug-20 01:33N 25°24' E 119°18'1211.5
2014-Aug-20 00:33N 25°19' E 119°29'9 7.7
2014-Aug-19 23:22N 25°18' E 119°39'0 0.0
2014-Aug-19 18:25N 25°18' E 119°39'0 0.0
2014-Aug-19 17:31N 25°18' E 119°39'0 0.0
2014-Aug-19 16:25N 25°18' E 119°39'0 0.0
2014-Aug-19 15:25N 25°18' E 119°39'0 0.1
2014-Aug-19 14:25N 25°18' E 119°39'0 0.1
2014-Aug-19 13:22N 25°18' E 119°39'0 0.0
2014-Aug-19 12:28N 25°18' E 119°39'5 5.8
2014-Aug-19 11:33N 25°14' E 119°43'146 7.7
2014-Aug-18 16:33N 22°49' E 120°03'1313.2
2014-Aug-18 15:33N 22°39' E 120°12'7 7.0
2014-Aug-18 14:33N 22°35' E 120°18'0 0.0
2014-Aug-18 13:32N 22°35' E 120°18'0 0.0
2014-Aug-18 12:26N 22°35' E 120°18'0 0.0
2014-Aug-18 11:32N 22°35' E 120°18'0 0.0
2014-Aug-18 10:32N 22°35' E 120°18'0 0.0
2014-Aug-18 09:26N 22°35' E 120°18'0 0.0
2014-Aug-18 08:32N 22°35' E 120°18'0 0.0
2014-Aug-18 07:32N 22°35' E 120°18'0 0.0
2014-Aug-18 06:32N 22°35' E 120°18'0 0.0
2014-Aug-18 05:20N 22°35' E 120°18'2 2.3
2014-Aug-18 04:33N 22°36' E 120°17'6 6.1
2014-Aug-18 03:33N 22°38' E 120°11'1010.3
2014-Aug-18 02:33N 22°44' E 120°02'1312.7
2014-Aug-18 01:33N 22°51' E 119°50'1211.9
2014-Aug-18 00:33N 22°57' E 119°39'7813.0
2014-Aug-17 18:32N 23°53' E 118°39'2412.2
2014-Aug-17 16:33N 24°10' E 118°21'1312.7
2014-Aug-17 15:33N 24°19' E 118°11'1111.3
2014-Aug-17 14:33N 24°28' E 118°03'4 2.8
2014-Aug-17 13:16N 24°31' E 118°05'0 0.0
2014-Aug-17 12:31N 24°31' E 118°05'0 0.0
2014-Aug-17 11:31N 24°31' E 118°05'0 0.0
2014-Aug-17 10:28N 24°31' E 118°05'0 0.0
2014-Aug-17 09:28N 24°31' E 118°05'0 0.0
2014-Aug-17 08:28N 24°31' E 118°05'0 0.0
2014-Aug-17 07:22N 24°31' E 118°05'0 0.0
2014-Aug-17 06:31N 24°31' E 118°05'0 0.0
2014-Aug-17 05:25N 24°31' E 118°05'0 0.0
2014-Aug-17 04:31N 24°31' E 118°05'0 0.0
2014-Aug-17 03:28N 24°31' E 118°05'0 0.0
2014-Aug-17 02:28N 24°31' E 118°05'1 1.6
2014-Aug-17 01:33N 24°30' E 118°04'8 8.4
2014-Aug-17 00:33N 24°22' E 118°08'9 8.7
2014-Aug-16 23:33N 24°16' E 118°15'7 7.2
2014-Aug-16 22:33N 24°10' E 118°20'1 1.2
2014-Aug-16 21:33N 24°10' E 118°21'1310.8
2014-Aug-16 20:23N 24°01' E 118°31'1213.0
2014-Aug-16 19:26N 23°52' E 118°40'1512.9
2014-Aug-16 18:18N 23°42' E 118°51'1213.3
2014-Aug-16 17:24N 23°33' E 119°01'1214.1
2014-Aug-16 16:33N 23°25' E 119°09'1514.6
2014-Aug-16 15:33N 23°14' E 119°20'2712.8
2014-Aug-16 13:27N 22°56' E 119°42'1412.3
2014-Aug-16 12:17N 22°50' E 119°56'811.6
2014-Aug-16 11:33N 22°44' E 120°03'1211.7
2014-Aug-16 10:33N 22°38' E 120°14'5 4.9
2014-Aug-16 09:32N 22°35' E 120°18'0 0.0
2014-Aug-16 08:29N 22°35' E 120°18'0 0.0
2014-Aug-16 07:29N 22°35' E 120°18'0 0.0
2014-Aug-16 06:29N 22°35' E 120°18'0 0.0
2014-Aug-16 05:29N 22°35' E 120°18'0 0.0
2014-Aug-16 04:29N 22°35' E 120°18'0 0.0
2014-Aug-16 03:29N 22°35' E 120°18'0 0.0
2014-Aug-16 02:29N 22°35' E 120°18'0 0.0
2014-Aug-16 01:29N 22°35' E 120°18'0 0.0
2014-Aug-16 00:33N 22°35' E 120°18'5 4.9
2014-Aug-15 23:33N 22°37' E 120°14'10 9.9
2014-Aug-15 22:34N 22°44' E 120°06'15112.1
2014-Aug-15 10:08N 25°15' E 120°04'1112.5
2014-Aug-15 09:14N 25°26' E 120°03'4910.4
2014-Aug-15 04:33N 26°07' E 119°34'8 8.3
2014-Aug-15 03:33N 26°00' E 119°29'0 0.0
2014-Aug-15 02:29N 26°00' E 119°29'0 0.0
2014-Aug-15 01:29N 26°00' E 119°29'0 0.0
2014-Aug-15 00:29N 26°00' E 119°29'0 0.0
2014-Aug-14 23:29N 26°00' E 119°29'0 0.0
2014-Aug-14 22:29N 26°00' E 119°29'0 0.0
2014-Aug-14 21:22N 26°00' E 119°29'0 0.0
2014-Aug-14 20:28N 26°00' E 119°29'0 0.0
2014-Aug-14 19:28N 26°00' E 119°29'0 0.0
2014-Aug-14 18:22N 26°00' E 119°29'0 0.0
2014-Aug-14 17:28N 26°00' E 119°29'0 0.0
2014-Aug-14 16:28N 26°00' E 119°29'0 0.0
2014-Aug-14 15:28N 26°00' E 119°29'0 0.0
2014-Aug-14 14:28N 26°00' E 119°29'0 0.0
2014-Aug-14 13:28N 26°00' E 119°29'0 0.0
2014-Aug-14 12:28N 26°00' E 119°29'0 0.0
2014-Aug-14 11:28N 26°00' E 119°29'0 0.0
2014-Aug-14 10:33N 26°00' E 119°29'0 0.0
2014-Aug-14 09:34N 26°00' E 119°29'0 0.0
2014-Aug-14 08:33N 26°00' E 119°29'0 0.0
2014-Aug-14 07:34N 26°00' E 119°29'0 0.0
2014-Aug-14 06:34N 26°00' E 119°29'6 6.2
2014-Aug-14 05:33N 26°06' E 119°32'1111.0
2014-Aug-14 04:33N 26°05' E 119°44'6 0.9
2014-Aug-13 22:06N 26°03' E 119°50'4 7.8
2014-Aug-13 21:32N 25°59' E 119°53'44 8.9
2014-Aug-13 16:34N 25°19' E 119°30'1212.2
2014-Aug-13 15:33N 25°24' E 119°18'1 0.8
2014-Aug-13 14:08N 25°25' E 119°17'0 0.0
2014-Aug-13 13:29N 25°25' E 119°17'0 0.0
2014-Aug-13 12:23N 25°25' E 119°17'0 0.0
2014-Aug-13 11:32N 25°25' E 119°17'0 0.0
2014-Aug-13 10:26N 25°25' E 119°17'0 0.0
2014-Aug-13 09:26N 25°25' E 119°17'0 0.0
2014-Aug-13 08:32N 25°25' E 119°17'0 0.0
2014-Aug-13 07:32N 25°25' E 119°17'6 6.1
2014-Aug-13 06:34N 25°22' E 119°23'1211.4
2014-Aug-13 05:33N 25°18' E 119°35'  

Dump ship's entire track history